createdAt,value
2023-03-30T00:00:00.000Z,10.6
2023-03-30T00:15:00.000Z,10.68
2023-03-30T00:30:00.000Z,10.72
2023-03-30T00:45:00.000Z,10.87
2023-03-30T01:00:00.000Z,11.02
2023-03-30T01:15:00.000Z,11.08
2023-03-30T01:30:00.000Z,10.96
2023-03-30T01:45:00.000Z,10.87
2023-03-30T02:00:00.000Z,11.09
2023-03-30T02:15:00.000Z,11.11
2023-03-30T02:30:00.000Z,11.07
2023-03-30T02:45:00.000Z,11.16
2023-03-30T03:00:00.000Z,11.18
2023-03-30T03:15:00.000Z,10.87
2023-03-30T03:30:00.000Z,10.41
2023-03-30T03:45:00.000Z,10.36
2023-03-30T04:00:00.000Z,10.49
2023-03-30T04:15:00.000Z,10.76
2023-03-30T04:30:00.000Z,11.05
2023-03-30T04:45:00.000Z,11.25
2023-03-30T05:00:00.000Z,11.15
2023-03-30T05:15:00.000Z,10.78
2023-03-30T05:30:00.000Z,10.49
2023-03-30T05:45:00.000Z,10.34
2023-03-30T06:00:00.000Z,10.4
2023-03-30T06:15:00.000Z,10.54
2023-03-30T06:30:00.000Z,10.53
2023-03-30T06:45:00.000Z,10.62
2023-03-30T07:00:00.000Z,10.8
2023-03-30T07:15:00.000Z,11.01
2023-03-30T07:30:00.000Z,11.55
2023-03-30T07:45:00.000Z,12.16
2023-03-30T08:00:00.000Z,12.36
2023-03-30T08:15:00.000Z,12.11
2023-03-30T08:30:00.000Z,12.37
2023-03-30T08:45:00.000Z,13.56
2023-03-30T09:00:00.000Z,15.42
2023-03-30T09:15:00.000Z,13.92
2023-03-30T09:30:00.000Z,14.51
2023-03-30T09:45:00.000Z,14.83
2023-03-30T10:00:00.000Z,14.23
2023-03-30T10:15:00.000Z,14.71
2023-03-30T10:30:00.000Z,15.13
2023-03-30T10:45:00.000Z,15.24
2023-03-30T11:00:00.000Z,15.81
2023-03-30T11:15:00.000Z,16.14
2023-03-30T11:30:00.000Z,16.87
2023-03-30T11:45:00.000Z,17.72
2023-03-30T12:00:00.000Z,18.33
2023-03-30T12:15:00.000Z,17.94
2023-03-30T12:30:00.000Z,16.97
2023-03-30T12:45:00.000Z,15.45
2023-03-30T13:00:00.000Z,14.63
2023-03-30T13:15:00.000Z,14.15
2023-03-30T13:30:00.000Z,13.51
2023-03-30T13:45:00.000Z,13.17
2023-03-30T14:00:00.000Z,13.03
2023-03-30T14:15:00.000Z,12.79
2023-03-30T14:30:00.000Z,12.57
2023-03-30T14:45:00.000Z,12.55
2023-03-30T15:00:00.000Z,12.55
2023-03-30T15:15:00.000Z,12.43
2023-03-30T15:30:00.000Z,12.36
2023-03-30T15:45:00.000Z,12.35
2023-03-30T16:00:00.000Z,12.19
2023-03-30T16:15:00.000Z,12.02
2023-03-30T16:30:00.000Z,11.94
2023-03-30T16:45:00.000Z,11.8
2023-03-30T17:00:00.000Z,11.68
2023-03-30T17:15:00.000Z,11.63
2023-03-30T17:30:00.000Z,11.5
2023-03-30T17:45:00.000Z,11.17
2023-03-30T18:00:00.000Z,11.1
2023-03-30T18:15:00.000Z,11.14
2023-03-30T18:30:00.000Z,11.24
2023-03-30T18:45:00.000Z,11.23
2023-03-30T19:00:00.000Z,11.23
2023-03-30T19:15:00.000Z,11.23
2023-03-30T19:30:00.000Z,11.25
2023-03-30T19:45:00.000Z,11.22
2023-03-30T20:00:00.000Z,11.17
2023-03-30T20:15:00.000Z,11.25
2023-03-30T20:30:00.000Z,11.21
2023-03-30T20:45:00.000Z,11.21
2023-03-30T21:00:00.000Z,11.57
2023-03-30T21:15:00.000Z,11.17
2023-03-30T21:30:00.000Z,10.9
2023-03-30T21:45:00.000Z,10.8
2023-03-30T22:00:00.000Z,10.61
2023-03-30T22:15:00.000Z,10.47
2023-03-30T22:30:00.000Z,10.5
2023-03-30T22:45:00.000Z,10.51
2023-03-30T23:00:00.000Z,10.56
2023-03-30T23:15:00.000Z,10.55
2023-03-30T23:30:00.000Z,10.58
2023-03-30T23:45:00.000Z,10.48
